Time;durP1;ratioP1;P1;durP2;ratioP2;P2;SDS_P1;SDS_P2;PMS_P1;PMS_P2;Temp;Humidity;BMP_temperature;BMP_pressure;BME280_temperature;BME280_humidity;BME280_pressure;Samples;Min_cycle;Max_cycle;Signal;HPM_P1;HPM_P2
2023/06/12 00:00:29;;;;;;;;;;;;;;;;;;5009910;28;8517;-89
2023/06/12 00:02:57;;;;;;;;;;;;;;;;;;5010147;28;7069;-89
2023/06/12 00:05:23;;;;;;;;;;;;;;;;;;5009543;28;6833;-90
2023/06/12 00:07:56;;;;;;;;;;;;;;;;;;5009713;28;7044;-89
2023/06/12 00:10:22;;;;;;;;;;;;;;;;;;5009423;28;9315;-91
2023/06/12 00:12:47;;;;;;;;;;;;;;;;;;5009784;28;7206;-90
2023/06/12 00:15:13;;;;;;;;;;;;;;;;;;5009561;28;8233;-91
2023/06/12 00:17:38;;;;;;;;;;;;;;;;;;5009543;28;8285;-90
2023/06/12 00:20:05;;;;;;;;;;;;;;;;;;5009351;28;8481;-91
2023/06/12 00:22:30;;;;;;;;;;;;;;;;;;5016611;28;7043;-91
2023/06/12 00:24:56;;;;;;;;;;;;;;;;;;5010524;28;8392;-94
2023/06/12 00:27:22;;;;;;;;;;;;;;;;;;5009428;28;7025;-92
2023/06/12 00:29:47;;;;;;;;;;;;;;;;;;5009562;28;8311;-91
2023/06/12 00:32:13;;;;;;;;;;;;;;;;;;5009164;28;7098;-91
2023/06/12 00:34:38;;;;;;;;;;;;;;;;;;5009441;28;7627;-91
2023/06/12 00:37:05;;;;;;;;;;;;;;;;;;5009214;28;8390;-91
2023/06/12 00:39:30;;;;;;;;;;;;;;;;;;5009459;28;7251;-90
2023/06/12 00:41:57;;;;;;;;;;;;;;;;;;5009142;28;8333;-91
2023/06/12 00:44:22;;;;;;;;;;;;;;;;;;5008804;28;7152;-90
2023/06/12 00:46:50;;;;;;;;;;;;;;;;;;5009560;28;8406;-90
2023/06/12 00:49:15;;;;;;;;;;;;;;;;;;5009122;28;7395;-90
2023/06/12 00:51:42;;;;;;;;;;;;;;;;;;5009002;28;7154;-90
2023/06/12 00:54:07;;;;;;;;;;;;;;;;;;5009494;28;7202;-90
2023/06/12 00:56:33;;;;;;;;;;;;;;;;;;5009229;28;7026;-90
2023/06/12 00:58:59;;;;;;;;;;;;;;;;;;5009130;28;8685;-90
2023/06/12 01:01:25;;;;;;;;;;;;;;;;;;5009098;28;7009;-91
2023/06/12 01:03:56;;;;;;;;;;;;;;;;;;5009280;28;6830;-91
2023/06/12 01:06:29;;;;;;;;;;;;;;;;;;5008750;28;8422;-90
2023/06/12 01:09:13;;;;;;;;;;;;;;;;;;5009359;28;7210;-89
2023/06/12 01:11:41;;;;;;;;;;;;;;;;;;5008850;28;8876;-90
2023/06/12 01:14:07;;;;;;;;;;;;;;;;;;5009085;28;7224;-89
2023/06/12 01:16:32;;;;;;;;;;;;;;;;;;5008760;28;8379;-89
2023/06/12 01:19:00;;;;;;;;;;;;;;;;;;5008866;28;8307;-87
2023/06/12 01:21:32;;;;;;;;;;;;;;;;;;5008662;28;7115;-85
2023/06/12 01:23:58;;;;;;;;;;;;;;;;;;5008770;28;8690;-82
2023/06/12 01:26:45;;;;;;;;;;;;;;;;;;5008797;28;7018;-88
2023/06/12 01:29:11;;;;;;;;;;;;;;;;;;5008706;28;7041;-87
2023/06/12 01:31:56;;;;;;;;;;;;;;;;;;5009873;28;6871;-89
2023/06/12 01:34:27;;;;;;;;;;;;;;;;;;5012495;28;8504;-88
2023/06/12 01:37:05;;;;;;;;;;;;;;;;;;5012460;28;8417;-87
2023/06/12 01:39:39;;;;;;;;;;;;;;;;;;5012444;28;8805;-87
2023/06/12 01:42:10;;;;;;;;;;;;;;;;;;5012041;28;8376;-91
2023/06/12 01:44:36;;;;;;;;;;;;;;;;;;5011742;28;8300;-90
2023/06/12 01:47:03;;;;;;;;;;;;;;;;;;5012236;28;8402;-90
2023/06/12 01:49:28;;;;;;;;;;;;;;;;;;5012068;28;9067;-89
2023/06/12 01:51:54;;;;;;;;;;;;;;;;;;5012176;28;8391;-91
2023/06/12 01:54:22;;;;;;;;;;;;;;;;;;5012377;28;8394;-89
2023/06/12 01:56:48;;;;;;;;;;;;;;;;;;5012570;28;7028;-88
2023/06/12 01:59:15;;;;;;;;;;;;;;;;;;5011794;28;7059;-90
2023/06/12 02:01:41;;;;;;;;;;;;;;;;;;5011975;28;7150;-89
2023/06/12 02:04:07;;;;;;;;;;;;;;;;;;5012153;28;8365;-87
2023/06/12 02:06:32;;;;;;;;;;;;;;;;;;5012113;28;8672;-87
2023/06/12 02:08:58;;;;;;;;;;;;;;;;;;5012072;28;8515;-88
2023/06/12 02:11:23;;;;;;;;;;;;;;;;;;5011783;28;8275;-88
2023/06/12 02:13:49;;;;;;;;;;;;;;;;;;5012007;28;8444;-87
2023/06/12 02:16:21;;;;;;;;;;;;;;;;;;5012250;28;7081;-89
2023/06/12 02:18:47;;;;;;;;;;;;;;;;;;5011843;28;8618;-88
2023/06/12 02:21:13;;;;;;;;;;;;;;;;;;5012809;28;8714;-92
2023/06/12 02:23:38;;;;;;;;;;;;;;;;;;5012396;28;8670;-91
2023/06/12 02:26:04;;;;;;;;;;;;;;;;;;4995301;28;7221;-90
2023/06/12 02:28:30;;;;;;;;;;;;;;;;;;5011764;28;8355;-90
2023/06/12 02:30:56;;;;;;;;;;;;;;;;;;5011901;28;7153;-91
2023/06/12 02:33:25;;;;;;;;;;;;;;;;;;5018385;28;8626;-88
2023/06/12 02:35:51;;;;;;;;;;;;;;;;;;5019827;28;7112;-90
2023/06/12 02:38:16;;;;;;;;;;;;;;;;;;5014654;28;8679;-91
2023/06/12 02:40:42;;;;;;;;;;;;;;;;;;5016672;28;8804;-90
2023/06/12 02:43:07;;;;;;;;;;;;;;;;;;5015948;28;8370;-91
2023/06/12 02:45:33;;;;;;;;;;;;;;;;;;5017422;28;8559;-91
2023/06/12 02:47:58;;;;;;;;;;;;;;;;;;5012013;28;8392;-89
2023/06/12 02:50:24;;;;;;;;;;;;;;;;;;5011459;28;8866;-89
2023/06/12 02:52:50;;;;;;;;;;;;;;;;;;5011794;28;8465;-88
2023/06/12 02:55:15;;;;;;;;;;;;;;;;;;5010938;28;7088;-89
2023/06/12 02:57:41;;;;;;;;;;;;;;;;;;5011246;28;7053;-88
2023/06/12 03:00:07;;;;;;;;;;;;;;;;;;5010917;28;8550;-89
2023/06/12 03:02:33;;;;;;;;;;;;;;;;;;5010606;28;7218;-90
2023/06/12 03:04:59;;;;;;;;;;;;;;;;;;5010536;28;8629;-88
2023/06/12 03:07:27;;;;;;;;;;;;;;;;;;4994542;28;7016;-89
2023/06/12 03:09:52;;;;;;;;;;;;;;;;;;5010659;28;6989;-86
2023/06/12 03:12:18;;;;;;;;;;;;;;;;;;5010549;28;8497;-87
2023/06/12 03:14:44;;;;;;;;;;;;;;;;;;5010555;28;8401;-86
2023/06/12 03:17:10;;;;;;;;;;;;;;;;;;5004680;28;8551;-86
2023/06/12 03:19:35;;;;;;;;;;;;;;;;;;4999116;28;7114;-87
2023/06/12 03:22:01;;;;;;;;;;;;;;;;;;5000493;28;7039;-89
2023/06/12 03:24:26;;;;;;;;;;;;;;;;;;4998789;28;8366;-88
2023/06/12 03:26:53;;;;;;;;;;;;;;;;;;5001134;28;7022;-88
2023/06/12 03:29:18;;;;;;;;;;;;;;;;;;4995982;28;8324;-88
2023/06/12 03:31:45;;;;;;;;;;;;;;;;;;4990671;28;8462;-87
2023/06/12 03:34:11;;;;;;;;;;;;;;;;;;4990682;28;8374;-88
2023/06/12 03:36:38;;;;;;;;;;;;;;;;;;4990741;28;7154;-87
2023/06/12 03:39:03;;;;;;;;;;;;;;;;;;5001622;28;8392;-88
2023/06/12 03:41:30;;;;;;;;;;;;;;;;;;5010410;28;7174;-90
2023/06/12 03:43:55;;;;;;;;;;;;;;;;;;5010547;28;8395;-89
2023/06/12 03:46:21;;;;;;;;;;;;;;;;;;5010081;28;8400;-90
2023/06/12 03:48:47;;;;;;;;;;;;;;;;;;5010271;28;7126;-92
2023/06/12 03:51:13;;;;;;;;;;;;;;;;;;5010261;28;7005;-90
2023/06/12 03:53:39;;;;;;;;;;;;;;;;;;5009895;28;8341;-90
2023/06/12 03:56:06;;;;;;;;;;;;;;;;;;5010036;28;7562;-90
2023/06/12 03:58:31;;;;;;;;;;;;;;;;;;5009670;28;6804;-89
2023/06/12 04:00:57;;;;;;;;;;;;;;;;;;5010103;28;8720;-88
2023/06/12 04:03:24;;;;;;;;;;;;;;;;;;5009609;28;8420;-89
2023/06/12 04:05:50;;;;;;;;;;;;;;;;;;5019413;28;7116;-91
2023/06/12 04:08:16;;;;;;;;;;;;;;;;;;5009848;28;8501;-88
2023/06/12 04:10:45;;;;;;;;;;;;;;;;;;5009554;28;8539;-89
2023/06/12 04:13:11;;;;;;;;;;;;;;;;;;5009665;28;8394;-93
2023/06/12 04:15:38;;;;;;;;;;;;;;;;;;5009606;28;8458;-92
2023/06/12 04:18:05;;;;;;;;;;;;;;;;;;5009526;28;7033;-91
2023/06/12 04:20:34;;;;;;;;;;;;;;;;;;5009818;28;8764;-91
2023/06/12 04:23:04;;;;;;;;;;;;;;;;;;5009833;28;8420;-91
2023/06/12 04:25:36;;;;;;;;;;;;;;;;;;5009904;28;7159;-92
2023/06/12 04:28:03;;;;;;;;;;;;;;;;;;5009627;28;7173;-93
2023/06/12 04:30:31;;;;;;;;;;;;;;;;;;5009390;28;7196;-91
2023/06/12 04:32:57;;;;;;;;;;;;;;;;;;5009503;28;8624;-90
2023/06/12 04:35:23;;;;;;;;;;;;;;;;;;5009605;28;8776;-94
2023/06/12 04:37:48;;;;;;;;;;;;;;;;;;5009511;28;8545;-91
2023/06/12 04:40:15;;;;;;;;;;;;;;;;;;5009187;28;8422;-93
2023/06/12 04:42:43;;;;;;;;;;;;;;;;;;5009133;28;8555;-91
2023/06/12 04:45:12;;;;;;;;;;;;;;;;;;5008685;28;9022;-89
2023/06/12 04:47:39;;;;;;;;;;;;;;;;;;5009384;28;7402;-91
2023/06/12 04:50:05;;;;;;;;;;;;;;;;;;5008978;28;8341;-91
2023/06/12 04:52:32;;;;;;;;;;;;;;;;;;5007780;28;8470;-91
2023/06/12 04:54:59;;;;;;;;;;;;;;;;;;5000433;28;7343;-92
2023/06/12 04:57:25;;;;;;;;;;;;;;;;;;4998704;28;9151;-92
2023/06/12 04:59:52;;;;;;;;;;;;;;;;;;5001479;28;8769;-92
2023/06/12 05:02:18;;;;;;;;;;;;;;;;;;5001242;28;8661;-92
2023/06/12 05:04:44;;;;;;;;;;;;;;;;;;5000997;28;7127;-93
2023/06/12 05:07:17;;;;;;;;;;;;;;;;;;5002422;28;8302;-95
2023/06/12 05:09:46;;;;;;;;;;;;;;;;;;5003687;28;8481;-93
2023/06/12 05:12:12;;;;;;;;;;;;;;;;;;5002210;28;7186;-92
2023/06/12 05:14:43;;;;;;;;;;;;;;;;;;5002062;28;8705;-93
2023/06/12 05:17:09;;;;;;;;;;;;;;;;;;5001802;28;7067;-91
2023/06/12 05:19:41;;;;;;;;;;;;;;;;;;5002259;28;8676;-90
2023/06/12 05:22:07;;;;;;;;;;;;;;;;;;5003496;28;8440;-94
2023/06/12 05:24:32;;;;;;;;;;;;;;;;;;5001789;28;7224;-90
2023/06/12 05:26:58;;;;;;;;;;;;;;;;;;5002101;28;7044;-91
2023/06/12 05:29:24;;;;;;;;;;;;;;;;;;5000752;28;8675;-92
2023/06/12 05:31:49;;;;;;;;;;;;;;;;;;5002693;28;8412;-92
2023/06/12 05:34:15;;;;;;;;;;;;;;;;;;5002217;28;7142;-93
2023/06/12 05:36:41;;;;;;;;;;;;;;;;;;5001843;28;8803;-93
2023/06/12 05:39:07;;;;;;;;;;;;;;;;;;5004313;28;7041;-93
2023/06/12 05:41:32;;;;;;;;;;;;;;;;;;5001465;28;8335;-93
2023/06/12 05:43:58;;;;;;;;;;;;;;;;;;5009180;28;8476;-92
2023/06/12 05:46:23;;;;;;;;;;;;;;;;;;5013181;28;8488;-90
2023/06/12 05:48:50;;;;;;;;;;;;;;;;;;5012655;28;8595;-90
2023/06/12 05:51:15;;;;;;;;;;;;;;;;;;5003521;28;9291;-91
2023/06/12 05:53:44;;;;;;;;;;;;;;;;;;4993372;28;7214;-92
2023/06/12 05:56:12;;;;;;;;;;;;;;;;;;4992466;28;7169;-88
2023/06/12 05:58:39;;;;;;;;;;;;;;;;;;4992341;28;8705;-83
2023/06/12 06:01:09;;;;;;;;;;;;;;;;;;4993039;28;9161;-92
2023/06/12 06:03:42;;;;;;;;;;;;;;;;;;4992447;28;8746;-91
2023/06/12 06:06:09;;;;;;;;;;;;;;;;;;4976768;28;6989;-91
2023/06/12 06:08:35;;;;;;;;;;;;;;;;;;4992569;28;8419;-91
2023/06/12 06:11:00;;;;;;;;;;;;;;;;;;4992433;28;8769;-89
2023/06/12 06:13:26;;;;;;;;;;;;;;;;;;4992282;28;8702;-89
2023/06/12 06:15:52;;;;;;;;;;;;;;;;;;4992012;28;8404;-88
2023/06/12 06:18:18;;;;;;;;;;;;;;;;;;4992433;28;9272;-88
2023/06/12 06:20:43;;;;;;;;;;;;;;;;;;4991799;28;8401;-84
2023/06/12 06:23:09;;;;;;;;;;;;;;;;;;4991706;28;8369;-84
2023/06/12 06:25:35;;;;;;;;;;;;;;;;;;4991780;28;8457;-85
2023/06/12 06:28:00;;;;;;;;;;;;;;;;;;4991777;28;8945;-85
2023/06/12 06:30:26;;;;;;;;;;;;;;;;;;4991653;28;8459;-86
2023/06/12 06:32:52;;;;;;;;;;;;;;;;;;4991552;28;8522;-85
2023/06/12 06:35:17;;;;;;;;;;;;;;;;;;4991523;28;8351;-81
2023/06/12 06:37:43;;;;;;;;;;;;;;;;;;4991414;28;8824;-84
2023/06/12 06:40:09;;;;;;;;;;;;;;;;;;4991542;28;8385;-83
2023/06/12 06:42:34;;;;;;;;;;;;;;;;;;4991322;28;8582;-83
2023/06/12 06:45:01;;;;;;;;;;;;;;;;;;4991139;28;8374;-81
2023/06/12 06:47:28;;;;;;;;;;;;;;;;;;4991222;28;8709;-82
2023/06/12 06:49:54;;;;;;;;;;;;;;;;;;4991247;28;8382;-86
2023/06/12 06:52:22;;;;;;;;;;;;;;;;;;4991622;28;8460;-86
2023/06/12 06:54:48;;;;;;;;;;;;;;;;;;4991072;28;8885;-85
2023/06/12 06:57:15;;;;;;;;;;;;;;;;;;4991058;28;9075;-86
2023/06/12 06:59:41;;;;;;;;;;;;;;;;;;4991108;28;7161;-85
2023/06/12 07:02:07;;;;;;;;;;;;;;;;;;4990943;28;8452;-85
2023/06/12 07:04:32;;;;;;;;;;;;;;;;;;4992512;28;8432;-86
2023/06/12 07:06:57;;;;;;;;;;;;;;;;;;4993546;28;8506;-84
2023/06/12 07:09:24;;;;;;;;;;;;;;;;;;4999143;28;8689;-84
2023/06/12 07:11:50;;;;;;;;;;;;;;;;;;4980972;28;8538;-85
2023/06/12 07:14:16;;;;;;;;;;;;;;;;;;5003373;28;8378;-85
2023/06/12 07:16:41;;;;;;;;;;;;;;;;;;4998999;28;8457;-86
2023/06/12 07:19:07;;;;;;;;;;;;;;;;;;4990907;28;7165;-86
2023/06/12 07:21:32;;;;;;;;;;;;;;;;;;4974392;28;8448;-87
2023/06/12 07:23:58;;;;;;;;;;;;;;;;;;4974704;28;8508;-85
2023/06/12 07:26:24;;;;;;;;;;;;;;;;;;4978296;28;8389;-87
2023/06/12 07:28:49;;;;;;;;;;;;;;;;;;4994075;28;8377;-85
2023/06/12 07:31:15;;;;;;;;;;;;;;;;;;4991286;28;9068;-86
2023/06/12 07:33:41;;;;;;;;;;;;;;;;;;4990305;28;8579;-91
2023/06/12 07:36:07;;;;;;;;;;;;;;;;;;4990068;28;8790;-91
2023/06/12 07:38:32;;;;;;;;;;;;;;;;;;4990363;28;8769;-88
2023/06/12 07:41:01;;;;;;;;;;;;;;;;;;4998452;28;8739;-85
2023/06/12 07:43:26;;;;;;;;;;;;;;;;;;4974576;28;8446;-87
2023/06/12 07:45:52;;;;;;;;;;;;;;;;;;4973634;28;8501;-86
2023/06/12 07:48:17;;;;;;;;;;;;;;;;;;4991641;28;7332;-89
2023/06/12 07:50:43;;;;;;;;;;;;;;;;;;5009646;28;8665;-85
2023/06/12 07:53:09;;;;;;;;;;;;;;;;;;5009830;28;8435;-87
2023/06/12 07:55:35;;;;;;;;;;;;;;;;;;5009378;28;8949;-87
2023/06/12 07:58:01;;;;;;;;;;;;;;;;;;5009985;28;7151;-87
2023/06/12 08:00:27;;;;;;;;;;;;;;;;;;5006180;28;8715;-85
2023/06/12 08:02:57;;;;;;;;;;;;;;;;;;5000963;28;8440;-83
2023/06/12 08:05:24;;;;;;;;;;;;;;;;;;5000763;28;8813;-83
2023/06/12 08:07:50;;;;;;;;;;;;;;;;;;4979165;28;8570;-84
2023/06/12 08:10:16;;;;;;;;;;;;;;;;;;4972235;28;6895;-82
2023/06/12 08:12:41;;;;;;;;;;;;;;;;;;4972828;28;8395;-81
2023/06/12 08:15:07;;;;;;;;;;;;;;;;;;4972557;28;8691;-84
2023/06/12 08:17:35;;;;;;;;;;;;;;;;;;4972531;28;8498;-83
2023/06/12 08:20:00;;;;;;;;;;;;;;;;;;4978793;28;8773;-83
2023/06/12 08:22:26;;;;;;;;;;;;;;;;;;4987514;28;8374;-84
2023/06/12 08:24:52;;;;;;;;;;;;;;;;;;4978674;28;8900;-85
2023/06/12 08:27:17;;;;;;;;;;;;;;;;;;4979169;28;8431;-83
2023/06/12 08:29:43;;;;;;;;;;;;;;;;;;4986757;28;8453;-86
2023/06/12 08:32:10;;;;;;;;;;;;;;;;;;5008971;28;8709;-84
2023/06/12 08:34:36;;;;;;;;;;;;;;;;;;5002053;28;8857;-84
2023/06/12 08:37:01;;;;;;;;;;;;;;;;;;5008980;28;7359;-84
2023/06/12 08:39:27;;;;;;;;;;;;;;;;;;5008679;28;8684;-84
2023/06/12 08:42:02;;;;;;;;;;;;;;;;;;4973338;28;8776;-84
2023/06/12 08:44:29;;;;;;;;;;;;;;;;;;4972684;28;8800;-84
2023/06/12 08:46:56;;;;;;;;;;;;;;;;;;4973087;28;7798;-84
2023/06/12 08:49:22;;;;;;;;;;;;;;;;;;4973192;28;8435;-84
2023/06/12 08:51:51;;;;;;;;;;;;;;;;;;4977845;28;8414;-84
2023/06/12 08:54:17;;;;;;;;;;;;;;;;;;4996313;28;8602;-84
2023/06/12 08:56:43;;;;;;;;;;;;;;;;;;4980973;28;6796;-83
2023/06/12 08:59:10;;;;;;;;;;;;;;;;;;4980449;28;8414;-83
2023/06/12 09:01:37;;;;;;;;;;;;;;;;;;4978230;28;7036;-85
2023/06/12 09:04:07;;;;;;;;;;;;;;;;;;4976032;28;8815;-84
2023/06/12 09:06:36;;;;;;;;;;;;;;;;;;5008968;28;9121;-85
2023/06/12 09:09:03;;;;;;;;;;;;;;;;;;4993489;28;8869;-83
2023/06/12 09:11:28;;;;;;;;;;;;;;;;;;5000269;28;9017;-85
2023/06/12 09:13:54;;;;;;;;;;;;;;;;;;4975212;28;8378;-84
2023/06/12 09:16:20;;;;;;;;;;;;;;;;;;5008654;28;8652;-83
2023/06/12 09:18:50;;;;;;;;;;;;;;;;;;5008629;28;8449;-85
2023/06/12 09:21:16;;;;;;;;;;;;;;;;;;5006135;28;7757;-84
2023/06/12 09:23:43;;;;;;;;;;;;;;;;;;5004286;28;7168;-84
2023/06/12 09:26:15;;;;;;;;;;;;;;;;;;4990086;28;9238;-82
2023/06/12 09:28:44;;;;;;;;;;;;;;;;;;5008844;28;8900;-84
2023/06/12 09:31:10;;;;;;;;;;;;;;;;;;5008425;28;8744;-84
2023/06/12 09:33:39;;;;;;;;;;;;;;;;;;5008697;28;8664;-85
2023/06/12 09:36:05;;;;;;;;;;;;;;;;;;5008828;28;8876;-85
2023/06/12 09:38:33;;;;;;;;;;;;;;;;;;5008464;28;8786;-86
2023/06/12 09:41:00;;;;;;;;;;;;;;;;;;5008265;28;8543;-85
2023/06/12 09:43:26;;;;;;;;;;;;;;;;;;5008563;28;8442;-84
2023/06/12 09:45:52;;;;;;;;;;;;;;;;;;5007928;28;8651;-85
2023/06/12 09:48:18;;;;;;;;;;;;;;;;;;4992535;28;6795;-84
2023/06/12 09:50:45;;;;;;;;;;;;;;;;;;4972681;28;8367;-84
2023/06/12 09:53:12;;;;;;;;;;;;;;;;;;4974787;28;8668;-85
2023/06/12 09:55:39;;;;;;;;;;;;;;;;;;4975280;28;8419;-86
2023/06/12 09:58:07;;;;;;;;;;;;;;;;;;4979445;28;8401;-85
2023/06/12 10:00:33;;;;;;;;;;;;;;;;;;4989895;28;7151;-86
2023/06/12 10:03:03;;;;;;;;;;;;;;;;;;4983414;28;7216;-85
2023/06/12 10:05:41;;;;;;;;;;;;;;;;;;4990854;28;7066;-82
2023/06/12 10:08:07;;;;;;;;;;;;;;;;;;5005241;28;8418;-86
2023/06/12 10:10:34;;;;;;;;;;;;;;;;;;4996737;28;8463;-84
2023/06/12 10:13:01;;;;;;;;;;;;;;;;;;5001622;28;8379;-85
2023/06/12 10:15:28;;;;;;;;;;;;;;;;;;4989760;28;9303;-83
2023/06/12 10:17:55;;;;;;;;;;;;;;;;;;5012376;28;8816;-84
2023/06/12 10:20:22;;;;;;;;;;;;;;;;;;5012568;28;8556;-84
2023/06/12 10:22:49;;;;;;;;;;;;;;;;;;5012824;28;7134;-84
2023/06/12 10:25:16;;;;;;;;;;;;;;;;;;5012259;28;8386;-84
2023/06/12 10:27:43;;;;;;;;;;;;;;;;;;5008364;28;8538;-84
2023/06/12 10:30:10;;;;;;;;;;;;;;;;;;4981823;28;8898;-84
2023/06/12 10:32:37;;;;;;;;;;;;;;;;;;5009349;28;8553;-85
2023/06/12 10:35:02;;;;;;;;;;;;;;;;;;4998877;28;8727;-84
2023/06/12 10:37:30;;;;;;;;;;;;;;;;;;5010404;28;7032;-85
2023/06/12 10:40:10;;;;;;;;;;;;;;;;;;5005451;28;7204;-85
2023/06/12 10:42:38;;;;;;;;;;;;;;;;;;5011371;28;8905;-84
2023/06/12 10:45:13;;;;;;;;;;;;;;;;;;4996871;28;9010;-82
2023/06/12 10:47:39;;;;;;;;;;;;;;;;;;5004155;28;8344;-83
2023/06/12 10:50:05;;;;;;;;;;;;;;;;;;5010860;28;8784;-84
2023/06/12 10:52:31;;;;;;;;;;;;;;;;;;5004641;28;6998;-83
2023/06/12 10:55:13;;;;;;;;;;;;;;;;;;5010848;28;8485;-85
2023/06/12 10:57:39;;;;;;;;;;;;;;;;;;5004558;28;8359;-83
2023/06/12 11:00:10;;;;;;;;;;;;;;;;;;5003993;28;8684;-80
2023/06/12 11:02:36;;;;;;;;;;;;;;;;;;5010578;28;8784;-81
2023/06/12 11:05:03;;;;;;;;;;;;;;;;;;5010490;28;8582;-81
2023/06/12 11:07:31;;;;;;;;;;;;;;;;;;5010298;28;8723;-84
2023/06/12 11:09:57;;;;;;;;;;;;;;;;;;5010405;28;8962;-85
2023/06/12 11:12:23;;;;;;;;;;;;;;;;;;5010526;28;8369;-85
2023/06/12 11:14:48;;;;;;;;;;;;;;;;;;5010333;28;8712;-84
2023/06/12 11:17:14;;;;;;;;;;;;;;;;;;5010266;28;8394;-83
2023/06/12 11:19:40;;;;;;;;;;;;;;;;;;5010287;28;8353;-83
2023/06/12 11:22:05;;;;;;;;;;;;;;;;;;5010194;28;8774;-83
2023/06/12 11:24:31;;;;;;;;;;;;;;;;;;5009967;28;8517;-83
2023/06/12 11:27:00;;;;;;;;;;;;;;;;;;5009961;28;8553;-84
2023/06/12 11:29:29;;;;;;;;;;;;;;;;;;5009955;28;8682;-83
2023/06/12 11:32:02;;;;;;;;;;;;;;;;;;5010091;28;8368;-82
2023/06/12 11:34:37;;;;;;;;;;;;;;;;;;5009958;28;9093;-84
2023/06/12 11:37:16;;;;;;;;;;;;;;;;;;5010338;28;7160;-82
2023/06/12 11:39:42;;;;;;;;;;;;;;;;;;5010261;28;8764;-82
2023/06/12 11:42:08;;;;;;;;;;;;;;;;;;5009674;28;7134;-82
2023/06/12 11:44:34;;;;;;;;;;;;;;;;;;5009641;28;8682;-83
2023/06/12 11:47:00;;;;;;;;;;;;;;;;;;5009671;28;8576;-84
2023/06/12 11:49:26;;;;;;;;;;;;;;;;;;5009991;28;8426;-83
2023/06/12 11:51:52;;;;;;;;;;;;;;;;;;5009639;28;8426;-84
2023/06/12 11:54:17;;;;;;;;;;;;;;;;;;5009616;28;8444;-83
2023/06/12 11:56:43;;;;;;;;;;;;;;;;;;5009610;28;8506;-83
2023/06/12 11:59:10;;;;;;;;;;;;;;;;;;5007993;28;8375;-84
2023/06/12 12:01:37;;;;;;;;;;;;;;;;;;5009406;28;8794;-82
2023/06/12 12:04:05;;;;;;;;;;;;;;;;;;5001123;28;8707;-83
2023/06/12 12:06:31;;;;;;;;;;;;;;;;;;5007233;28;8710;-84
2023/06/12 12:08:58;;;;;;;;;;;;;;;;;;4984195;28;7067;-82
2023/06/12 12:11:28;;;;;;;;;;;;;;;;;;4973594;28;8426;-82
2023/06/12 12:14:03;;;;;;;;;;;;;;;;;;4973830;28;9053;-82
2023/06/12 12:16:36;;;;;;;;;;;;;;;;;;4973007;28;8789;-83
2023/06/12 12:19:14;;;;;;;;;;;;;;;;;;4973466;28;8768;-83
2023/06/12 12:21:43;;;;;;;;;;;;;;;;;;4973375;28;8375;-84
2023/06/12 12:24:09;;;;;;;;;;;;;;;;;;4973310;28;8248;-83
2023/06/12 12:26:41;;;;;;;;;;;;;;;;;;4973090;28;8486;-81
2023/06/12 12:29:07;;;;;;;;;;;;;;;;;;4973640;28;9118;-78
2023/06/12 12:31:33;;;;;;;;;;;;;;;;;;4973345;28;8733;-80
2023/06/12 12:33:58;;;;;;;;;;;;;;;;;;4973135;28;8859;-79
2023/06/12 12:36:25;;;;;;;;;;;;;;;;;;4973546;28;9065;-80
2023/06/12 12:38:50;;;;;;;;;;;;;;;;;;4973239;28;8381;-79
2023/06/12 12:41:17;;;;;;;;;;;;;;;;;;4973093;28;7033;-79
2023/06/12 12:43:42;;;;;;;;;;;;;;;;;;4977400;28;8812;-79
2023/06/12 12:46:08;;;;;;;;;;;;;;;;;;4988603;28;8700;-80
2023/06/12 12:48:34;;;;;;;;;;;;;;;;;;5008715;28;8577;-79
2023/06/12 12:50:59;;;;;;;;;;;;;;;;;;5005318;28;9140;-80
2023/06/12 12:53:26;;;;;;;;;;;;;;;;;;4996459;28;7171;-82
2023/06/12 12:55:51;;;;;;;;;;;;;;;;;;4989721;28;8982;-81
2023/06/12 12:58:17;;;;;;;;;;;;;;;;;;4983233;28;7129;-82
2023/06/12 13:00:44;;;;;;;;;;;;;;;;;;4996722;28;8868;-82
2023/06/12 13:03:09;;;;;;;;;;;;;;;;;;4996264;28;8763;-82
2023/06/12 13:05:36;;;;;;;;;;;;;;;;;;4978610;28;8498;-83
2023/06/12 13:08:01;;;;;;;;;;;;;;;;;;4976765;28;7291;-82
2023/06/12 13:10:27;;;;;;;;;;;;;;;;;;4982087;28;8486;-82
2023/06/12 13:12:53;;;;;;;;;;;;;;;;;;4982100;28;8927;-82
2023/06/12 13:15:18;;;;;;;;;;;;;;;;;;4987920;28;8565;-83
2023/06/12 13:17:43;;;;;;;;;;;;;;;;;;5005851;28;8703;-82
2023/06/12 13:20:09;;;;;;;;;;;;;;;;;;5013569;28;8532;-80
2023/06/12 13:22:35;;;;;;;;;;;;;;;;;;5003174;28;9405;-82
2023/06/12 13:25:00;;;;;;;;;;;;;;;;;;4985108;28;8483;-81
2023/06/12 13:27:26;;;;;;;;;;;;;;;;;;4982758;28;8425;-81
2023/06/12 13:29:51;;;;;;;;;;;;;;;;;;4997847;28;8433;-81
2023/06/12 13:32:17;;;;;;;;;;;;;;;;;;5000961;28;8311;-80
2023/06/12 13:34:43;;;;;;;;;;;;;;;;;;4983601;28;8817;-82
2023/06/12 13:37:09;;;;;;;;;;;;;;;;;;4989290;28;7211;-82
2023/06/12 13:39:34;;;;;;;;;;;;;;;;;;4986733;28;8438;-81
2023/06/12 13:42:00;;;;;;;;;;;;;;;;;;4989716;28;8804;-80
2023/06/12 13:44:26;;;;;;;;;;;;;;;;;;5008298;28;7106;-82
2023/06/12 13:46:52;;;;;;;;;;;;;;;;;;5005530;28;8513;-84
2023/06/12 13:49:17;;;;;;;;;;;;;;;;;;4993738;28;8578;-82
2023/06/12 13:51:43;;;;;;;;;;;;;;;;;;5011664;28;8400;-84
2023/06/12 13:54:09;;;;;;;;;;;;;;;;;;5011994;28;8386;-82
2023/06/12 13:56:35;;;;;;;;;;;;;;;;;;5011986;28;8384;-82
2023/06/12 13:59:01;;;;;;;;;;;;;;;;;;5011458;28;8385;-83
2023/06/12 14:01:28;;;;;;;;;;;;;;;;;;5011725;28;8807;-82
2023/06/12 14:03:53;;;;;;;;;;;;;;;;;;4987980;28;8406;-80
2023/06/12 14:06:22;;;;;;;;;;;;;;;;;;4976078;28;8403;-82
2023/06/12 14:08:49;;;;;;;;;;;;;;;;;;4975849;28;8486;-80
2023/06/12 14:11:16;;;;;;;;;;;;;;;;;;4975586;28;8432;-80
2023/06/12 14:13:41;;;;;;;;;;;;;;;;;;4975091;28;7130;-80
2023/06/12 14:16:08;;;;;;;;;;;;;;;;;;4975781;28;8792;-79
2023/06/12 14:18:33;;;;;;;;;;;;;;;;;;4975493;28;8423;-80
2023/06/12 14:21:03;;;;;;;;;;;;;;;;;;4975653;28;8476;-80
2023/06/12 14:23:28;;;;;;;;;;;;;;;;;;4975443;28;8809;-80
2023/06/12 14:25:54;;;;;;;;;;;;;;;;;;4975651;28;8436;-80
2023/06/12 14:28:19;;;;;;;;;;;;;;;;;;4975639;28;8741;-80
2023/06/12 14:30:45;;;;;;;;;;;;;;;;;;4975863;28;8361;-80
2023/06/12 14:33:10;;;;;;;;;;;;;;;;;;4975411;28;8540;-80
2023/06/12 14:35:36;;;;;;;;;;;;;;;;;;4975103;28;8576;-80
2023/06/12 14:38:02;;;;;;;;;;;;;;;;;;4974924;28;8403;-80
2023/06/12 14:40:28;;;;;;;;;;;;;;;;;;4983032;28;8584;-80
2023/06/12 14:42:54;;;;;;;;;;;;;;;;;;5001302;28;7224;-80
2023/06/12 14:45:21;;;;;;;;;;;;;;;;;;4990358;28;7271;-80
2023/06/12 14:47:47;;;;;;;;;;;;;;;;;;5010443;28;8875;-80
2023/06/12 14:50:13;;;;;;;;;;;;;;;;;;5006578;28;8458;-80
2023/06/12 14:52:39;;;;;;;;;;;;;;;;;;5010191;28;8402;-80
2023/06/12 14:55:05;;;;;;;;;;;;;;;;;;4981973;28;6857;-80
2023/06/12 14:57:30;;;;;;;;;;;;;;;;;;4979588;28;8752;-80
2023/06/12 14:59:56;;;;;;;;;;;;;;;;;;4998156;28;8395;-79
2023/06/12 15:02:22;;;;;;;;;;;;;;;;;;4974547;28;8540;-80
2023/06/12 15:04:47;;;;;;;;;;;;;;;;;;4974603;28;7054;-80
2023/06/12 15:07:13;;;;;;;;;;;;;;;;;;4974587;28;8433;-81
2023/06/12 15:09:39;;;;;;;;;;;;;;;;;;4974490;28;8471;-80
2023/06/12 15:12:05;;;;;;;;;;;;;;;;;;4974466;28;8776;-80
2023/06/12 15:14:30;;;;;;;;;;;;;;;;;;4974358;28;8677;-80
2023/06/12 15:16:56;;;;;;;;;;;;;;;;;;4974419;28;8461;-80
2023/06/12 15:19:21;;;;;;;;;;;;;;;;;;4974975;28;8682;-80
2023/06/12 15:21:46;;;;;;;;;;;;;;;;;;4974544;28;7946;-80
2023/06/12 15:24:12;;;;;;;;;;;;;;;;;;4985026;28;7011;-80
2023/06/12 15:26:37;;;;;;;;;;;;;;;;;;5008796;28;8448;-80
2023/06/12 15:29:03;;;;;;;;;;;;;;;;;;5008979;28;8493;-80
2023/06/12 15:31:28;;;;;;;;;;;;;;;;;;5009806;28;7054;-80
2023/06/12 15:33:53;;;;;;;;;;;;;;;;;;4994133;28;7120;-80
2023/06/12 15:36:19;;;;;;;;;;;;;;;;;;5009227;28;9082;-80
2023/06/12 15:38:47;;;;;;;;;;;;;;;;;;5009104;28;7006;-84
2023/06/12 15:41:13;;;;;;;;;;;;;;;;;;5009147;28;8814;-79
2023/06/12 15:43:39;;;;;;;;;;;;;;;;;;5008579;28;8809;-78
2023/06/12 15:46:09;;;;;;;;;;;;;;;;;;5009159;28;8592;-77
2023/06/12 15:48:41;;;;;;;;;;;;;;;;;;5009219;28;6999;-91
2023/06/12 15:51:08;;;;;;;;;;;;;;;;;;5008330;28;8832;-90
2023/06/12 15:53:34;;;;;;;;;;;;;;;;;;5009999;28;8518;-89
2023/06/12 15:55:59;;;;;;;;;;;;;;;;;;5005667;28;7123;-89
2023/06/12 15:58:25;;;;;;;;;;;;;;;;;;4992373;28;7342;-87
2023/06/12 16:00:51;;;;;;;;;;;;;;;;;;4974120;28;8627;-87
2023/06/12 16:03:16;;;;;;;;;;;;;;;;;;4973563;28;8881;-87
2023/06/12 16:05:41;;;;;;;;;;;;;;;;;;5003868;28;7279;-86
2023/06/12 16:08:07;;;;;;;;;;;;;;;;;;5009115;28;8530;-89
2023/06/12 16:10:33;;;;;;;;;;;;;;;;;;5009953;28;8828;-88
2023/06/12 16:12:58;;;;;;;;;;;;;;;;;;5009270;28;8525;-88
2023/06/12 16:15:25;;;;;;;;;;;;;;;;;;5009374;28;8504;-87
2023/06/12 16:17:55;;;;;;;;;;;;;;;;;;5009435;28;8510;-89
2023/06/12 16:20:21;;;;;;;;;;;;;;;;;;5009709;28;9292;-89
2023/06/12 16:22:47;;;;;;;;;;;;;;;;;;5009413;28;8875;-89
2023/06/12 16:25:13;;;;;;;;;;;;;;;;;;5009224;28;7226;-90
2023/06/12 16:27:40;;;;;;;;;;;;;;;;;;5009107;28;8933;-88
2023/06/12 16:30:07;;;;;;;;;;;;;;;;;;5009208;28;7305;-89
2023/06/12 16:32:32;;;;;;;;;;;;;;;;;;5009142;28;7319;-87
2023/06/12 16:34:58;;;;;;;;;;;;;;;;;;5009231;28;8578;-87
2023/06/12 16:37:25;;;;;;;;;;;;;;;;;;5009251;28;8655;-86
2023/06/12 16:39:50;;;;;;;;;;;;;;;;;;5005764;28;8603;-87
2023/06/12 16:42:19;;;;;;;;;;;;;;;;;;5002324;28;8663;-86
2023/06/12 16:44:46;;;;;;;;;;;;;;;;;;5008478;28;8842;-87
2023/06/12 16:47:12;;;;;;;;;;;;;;;;;;5008896;28;9243;-87
2023/06/12 16:49:38;;;;;;;;;;;;;;;;;;5008764;28;8507;-87
2023/06/12 16:52:03;;;;;;;;;;;;;;;;;;5009377;28;8536;-88
2023/06/12 16:54:29;;;;;;;;;;;;;;;;;;5008599;28;8511;-87
2023/06/12 16:56:54;;;;;;;;;;;;;;;;;;5008794;28;8518;-88
2023/06/12 16:59:20;;;;;;;;;;;;;;;;;;5008998;28;8696;-87